Tiempo atmosférico en la estación meteorológica de Calvià, Son Vic Nou, Illes Balears (35 m.)



Fecha
DESCASC
Temp. máxima en grados centígrados (hora)
DESCASC
Temp. mínima en grados centígrados (hora)
DESCASC
Temp. media en grados centígrados
DESCASC
Racha de viento máxima en m/sg (hora)
DESCASC
Velocidad máxima media en intervalos de 10 minutos(hora)
DESCASC
Precipitaciones diarias en mm
DESCASC
Precipitaciones de 00:00 a 06:00 en mm
DESCASC
Precipitaciones de 06:00 a 12:00 en mm
DESCASC
Precipitaciones de 12:00 a 18:00 en mm
DESCASC
Precipitaciones de 18:00 a 24:00 en mm
DESCASC

Gráficas

Temp. máximas Temp. mínimas Temp. medias Precipitaciones Rachas de viento máximas Velocidades máximas media en intervalos de 10 minutos

Datos horarios

Fecha y hora oficial Temperatura (ºC) Velocidad del viento (km/h) Dirección del viento Racha (km/h) Dirección de racha Precipitación (mm) Presión (hPa) Tendencia (hPa) Humedad (%)
2019-11-13 23:00:00 8 4 Nordeste 8 Este 0 -- -- 91
2019-11-13 22:00:00 8.2 4 Norte 10 Este 0 -- -- 91
2019-11-13 21:00:00 8.8 2 Norte 8 Nordeste 0 -- -- 88
2019-11-13 20:00:00 11.3 4 Nordeste 23 Norte 0 -- -- 83
2019-11-13 19:00:00 12.6 12 Norte 25 Noroeste 0 -- -- 85
2019-11-13 18:00:00 12.6 3 Norte 11 Nordeste 0 -- -- 84
2019-11-13 17:00:00 13.4 4 Nordeste 18 Noroeste 0 -- -- 81
2019-11-13 16:00:00 13.6 4 Norte 17 Norte 0.2 -- -- 84
2019-11-13 15:00:00 14.6 4 Nordeste 23 Nordeste 0 -- -- 84
2019-11-13 14:00:00 14.3 7 Nordeste 25 Norte 0 -- -- 86
2019-11-13 13:00:00 14.2 10 Norte 20 Norte 0 -- -- 87
2019-11-13 12:00:00 14.1 9 Noroeste 22 Norte 0 -- -- 89
2019-11-13 11:00:00 14.1 8 Noroeste 18 Noroeste 0.6 -- -- 90
2019-11-13 10:00:00 13.5 0 Calma 19 Oeste 1 -- -- 89
2019-11-13 09:00:00 12.7 7 Noroeste 15 Oeste 1.8 -- -- 89
2019-11-13 08:00:00 11.1 4 Nordeste 9 Este 0 -- -- 86
2019-11-13 07:00:00 9.7 3 Este 9 Este 0 -- -- 85
2019-11-13 06:00:00 9.9 0 Calma 9 Este 0 -- -- 81
2019-11-13 05:00:00 11 4 Nordeste 8 Este 0 -- -- 79
2019-11-13 04:00:00 10.8 3 Norte 12 Norte 0 -- -- 76
2019-11-13 03:00:00 11.6 2 Norte 13 Noroeste 0 -- -- 70
2019-11-13 02:00:00 14.2 6 Noroeste 14 Noroeste 0 -- -- 63
2019-11-13 01:00:00 12.2 8 Noroeste 24 Oeste 0 -- -- 65
2019-11-13 00:00:00 15.2 19 Noroeste 35 Noroeste 0 -- -- 57
2019-11-12 23:00:00 15.4 12 Noroeste 30 Norte 0 -- -- 60
2019-11-12 22:00:00 14.2 9 Noroeste 31 Noroeste 0 -- -- 66
2019-11-12 21:00:00 12.6 17 Noroeste 27 Noroeste 0 -- -- 70
2019-11-12 20:00:00 13.1 9 Noroeste 27 Noroeste 0 -- -- 67
2019-11-12 19:00:00 13.8 10 Noroeste 34 Noroeste 0 -- -- 64
2019-11-12 18:00:00 14 9 Noroeste 36 Noroeste 0 -- -- 64
2019-11-12 17:00:00 15 12 Noroeste 34 Norte 0 -- -- 63
2019-11-12 16:00:00 16.2 13 Noroeste 29 Noroeste 0 -- -- 62
2019-11-12 15:00:00 16.3 16 Norte 39 Noroeste 0 -- -- 62
2019-11-12 14:00:00 16.4 18 Noroeste 34 Noroeste 0 -- -- 63
2019-11-12 13:00:00 17.2 14 Noroeste 33 Noroeste 0 -- -- 64
2019-11-12 12:00:00 16.7 9 Noroeste 24 Noroeste 0 -- -- 68
2019-11-12 11:00:00 15.9 11 Norte 23 Norte 0 -- -- 71
2019-11-12 10:00:00 14.6 7 Norte 20 Noroeste 0 -- -- 76
2019-11-12 09:00:00 14 4 Este 12 Sudeste 0 -- -- 79
2019-11-12 08:00:00 12.6 3 Noroeste 19 Norte 0 -- -- 81
2019-11-12 07:00:00 12.3 8 Norte 18 Norte 0 -- -- 91
2019-11-12 06:00:00 9.7 3 Noroeste 9 Norte 0 -- -- 89
2019-11-12 05:00:00 9.7 4 Norte 9 Norte 0 -- -- 88
2019-11-12 04:00:00 9.3 2 Nordeste 5 Nordeste 0 -- -- 84
2019-11-12 03:00:00 12.5 2 Nordeste 14 Noroeste 0 -- -- 76
2019-11-12 02:00:00 13.3 8 Noroeste 14 Norte 0 -- -- 78
2019-11-12 01:00:00 11.5 8 Norte 14 Noroeste 0 -- -- 88
2019-11-12 00:00:00 8 0 Calma 5 Este 0 -- -- 85
2019-11-11 23:00:00 7.8 3 Este 7 Este 0 -- -- 84
2019-11-11 22:00:00 7.7 2 Norte 6 Noroeste 0 -- -- 82
2019-11-11 21:00:00 8.7 0 Calma 16 Nordeste 0 -- -- 77
2019-11-11 20:00:00 11.6 2 Nordeste 13 Norte 0 -- -- 68
2019-11-11 19:00:00 11.5 3 Norte 12 Noroeste 0 -- -- 72
2019-11-11 18:00:00 11.9 2 Sudoeste 23 Nordeste 0 -- -- 66
2019-11-11 17:00:00 14.2 11 Norte 28 Norte 0 -- -- 59
2019-11-11 16:00:00 15.3 18 Norte 35 Norte 0 -- -- 60
2019-11-11 15:00:00 16.4 9 Norte 34 Noroeste 0 -- -- 57
2019-11-11 14:00:00 14.5 9 Norte 24 Norte 0 -- -- 61
2019-11-11 13:00:00 14.7 9 Norte 30 Nordeste 0 -- -- 61
2019-11-11 12:00:00 14.7 12 Norte 30 Noroeste 0 -- -- 54
2019-11-11 11:00:00 14.7 14 Norte 33 Norte 0 -- -- 56
2019-11-11 10:00:00 14.9 5 Nordeste 44 Noroeste 0 -- -- 63
2019-11-11 09:00:00 13.2 12 Norte 50 Norte 0 -- -- 69
2019-11-11 08:00:00 12.5 26 Noroeste 51 Noroeste 0 -- -- 70
2019-11-11 07:00:00 12.4 20 Norte 48 Noroeste 0 -- -- 73
2019-11-11 06:00:00 11.8 8 Norte 35 Noroeste 0 -- -- 77
2019-11-11 05:00:00 12.1 11 Norte 32 Noroeste 0 -- -- 79
2019-11-11 04:00:00 12 10 Noroeste 31 Norte 0 -- -- 86
2019-11-11 03:00:00 8.1 6 Norte 11 Norte 0 -- -- 93
2019-11-11 02:00:00 6.9 2 Nordeste 9 Este 0.2 -- -- 92
2019-11-11 01:00:00 6.7 2 Este 7 Noroeste 0.4 -- -- 91
2019-11-11 00:00:00 7.3 3 Nordeste 18 Noroeste 9.2 -- -- 85
2019-11-10 23:00:00 10.2 5 Nordeste 18 Noroeste 4.4 -- -- 72
2019-11-10 22:00:00 12.6 3 Noroeste 24 Noroeste 0 -- -- 65
2019-11-10 21:00:00 12.9 11 Noroeste 28 Noroeste 0 -- -- 64
2019-11-10 20:00:00 12.8 13 Noroeste 40 Oeste 0.2 -- -- 65
2019-11-10 19:00:00 13 15 Noroeste 35 Noroeste 0 -- -- 66
2019-11-10 18:00:00 13.2 9 Norte 37 Oeste 0 -- -- 64
2019-11-10 17:00:00 13.3 17 Noroeste 33 Noroeste 0 -- -- 67
2019-11-10 16:00:00 13.2 14 Noroeste 33 Noroeste 0 -- -- 69
2019-11-10 15:00:00 12.9 15 Noroeste 35 Noroeste 0 -- -- 73
2019-11-10 14:00:00 12.6 5 Oeste 13 Noroeste 0 -- -- 74
2019-11-10 13:00:00 11.6 3 Oeste 37 Nordeste 0 -- -- 78
2019-11-10 12:00:00 9.5 12 Nordeste 33 Nordeste 0.2 -- -- 84
2019-11-10 11:00:00 8.4 15 Nordeste 43 Norte 7.6 -- -- 85
2019-11-10 10:00:00 8.8 12 Norte 37 Norte 1 -- -- 82
2019-11-10 09:00:00 11.1 13 Nordeste 49 Noroeste 0.8 -- -- 75
2019-11-10 08:00:00 12.9 17 Noroeste 41 Norte 0 -- -- 74
2019-11-10 07:00:00 12.4 20 Norte 40 Norte 0 -- -- 78
2019-11-10 06:00:00 11.9 19 Norte 60 Noroeste 2.8 -- -- 81
2019-11-10 05:00:00 13.5 26 Noroeste 67 Norte 0.6 -- -- 64
2019-11-10 04:00:00 15.7 5 Noroeste 21 Norte 0 -- -- 60
2019-11-10 03:00:00 15.9 10 Norte 24 Norte 0 -- -- 61
2019-11-10 02:00:00 16.3 7 Noroeste 19 Sudoeste 0 -- -- 67
2019-11-10 01:00:00 16.8 11 Oeste 28 Oeste 0 -- -- 65
2019-11-10 00:00:00 16.5 12 Oeste 33 Oeste 0 -- -- 60
2019-11-09 23:00:00 16.7 19 Oeste 36 Oeste 0 -- -- 54
2019-11-09 22:00:00 16.5 14 Oeste 39 Sudoeste 0 -- -- 55
2019-11-09 21:00:00 15.9 10 Oeste 19 Oeste 0 -- -- 58
2019-11-09 20:00:00 15.2 9 Oeste 20 Oeste 0 -- -- 59
2019-11-09 19:00:00 14.8 7 Oeste 25 Sudoeste 0 -- -- 59
2019-11-09 18:00:00 15.2 7 Oeste 24 Oeste 0 -- -- 59
2019-11-09 17:00:00 15.3 6 Oeste 32 Oeste 0 -- -- 59
2019-11-09 16:00:00 17.1 13 Oeste 30 Oeste 0 -- -- 56
2019-11-09 15:00:00 16 16 Noroeste 32 Oeste 0 -- -- 61
2019-11-09 14:00:00 17.9 13 Oeste 31 Oeste 0 -- -- 59
2019-11-09 13:00:00 15.5 14 Norte 30 Norte 0 -- -- 64
2019-11-09 12:00:00 16.1 10 Noroeste 29 Noroeste 0 -- -- 64
2019-11-09 11:00:00 15.3 7 Norte 33 Noroeste 0 -- -- 64
2019-11-09 10:00:00 14.1 13 Norte 42 Norte 0 -- -- 66
2019-11-09 09:00:00 13.8 15 Noroeste 50 Norte 0 -- -- 65
2019-11-09 08:00:00 13.8 24 Norte 49 Noroeste 0 -- -- 64
2019-11-09 07:00:00 13.6 15 Norte 55 Norte 0 -- -- 63
2019-11-09 06:00:00 13.7 23 Noroeste 57 Norte 0 -- -- 64
2019-11-09 05:00:00 13.5 16 Norte 55 Norte 0 -- -- 67
2019-11-09 04:00:00 13.6 27 Norte 58 Norte 0.4 -- -- 66
2019-11-09 03:00:00 13.4 21 Noroeste 55 Noroeste 0 -- -- 67
2019-11-09 02:00:00 13 17 Noroeste 42 Norte 1.8 -- -- 72
2019-11-09 01:00:00 13.3 17 Norte 51 Noroeste 0.4 -- -- 67
2019-11-09 00:00:00 13.7 21 Norte 54 Norte 0 -- -- 63
2019-11-08 23:00:00 13.8 21 Noroeste 68 Norte 0 -- -- 61
2019-11-08 22:00:00 14.3 19 Norte 47 Norte 0 -- -- 59
2019-11-08 21:00:00 14.7 15 Noroeste 47 Norte 0 -- -- 59
2019-11-08 20:00:00 13.4 19 Oeste 47 Noroeste 0.4 -- -- 56
2019-11-08 19:00:00 15.5 11 Oeste 26 Oeste 0 -- -- 51
2019-11-08 18:00:00 14.4 8 Oeste 28 Oeste 0 -- -- 53
2019-11-08 17:00:00 15 16 Noroeste 34 Oeste 0 -- -- 52
2019-11-08 16:00:00 15.4 16 Oeste 45 Oeste 0 -- -- 50
2019-11-08 15:00:00 16.1 22 Noroeste 40 Noroeste 0 -- -- 50
2019-11-08 14:00:00 15.7 18 Noroeste 49 Oeste 0 -- -- 52
2019-11-08 13:00:00 16 19 Oeste 42 Oeste 0 -- -- 52
2019-11-08 12:00:00 16 16 Oeste 31 Oeste 0 -- -- 54
2019-11-08 11:00:00 15.2 17 Oeste 32 Oeste 0 -- -- 58
2019-11-08 10:00:00 13.6 12 Norte 36 Norte 0 -- -- 65
2019-11-08 09:00:00 13.3 14 Norte 31 Norte 0 -- -- 71
2019-11-08 08:00:00 12 13 Noroeste 31 Norte 0.2 -- -- 80
2019-11-08 07:00:00 8.7 3 Norte 12 Noroeste 0 -- -- 90
2019-11-08 06:00:00 9.2 2 Sudeste 10 Este 0 -- -- 88
2019-11-08 05:00:00 9.7 3 Sudoeste 12 Nordeste 0 -- -- 87
2019-11-08 04:00:00 10 5 Norte 18 Noroeste 1 -- -- 86
2019-11-08 03:00:00 11.2 8 Norte 17 Norte 0.4 -- -- 79
2019-11-08 02:00:00 10.1 2 Norte 24 Norte 0 -- -- 76
2019-11-08 01:00:00 13.1 17 Norte 47 Noroeste 0 -- -- 65
2019-11-08 00:00:00 13.4 6 Noroeste 29 Norte 0 -- -- 72
2019-11-07 23:00:00 11.6 0 Calma 23 Nordeste 0.6 -- -- 84
2019-11-07 22:00:00 13.7 11 Norte 26 Norte 0.8 -- -- 79
2019-11-07 21:00:00 14 8 Norte 19 Norte 1.2 -- -- 86
2019-11-07 20:00:00 14.5 11 Norte 32 Oeste 2.6 -- -- 79
2019-11-07 19:00:00 18.3 16 Oeste 31 Sudoeste 0 -- -- 68
2019-11-07 18:00:00 18.3 13 Oeste 28 Oeste 0 -- -- 67
2019-11-07 17:00:00 18.2 15 Oeste 33 Oeste 0 -- -- 66
2019-11-07 16:00:00 18.4 16 Oeste 39 Oeste 0 -- -- 65
2019-11-07 15:00:00 18.6 14 Oeste 32 Oeste 0 -- -- 64
2019-11-07 14:00:00 19.1 11 Oeste 33 Oeste 0 -- -- 62
2019-11-07 13:00:00 19.9 17 Oeste 37 Oeste 0 -- -- 60
2019-11-07 12:00:00 19.1 19 Oeste 41 Oeste 0 -- -- 63
2019-11-07 11:00:00 18.9 18 Oeste 37 Oeste 0 -- -- 63
2019-11-07 10:00:00 17.8 14 Sudoeste 31 Oeste 0 -- -- 66
2019-11-07 09:00:00 17.2 18 Oeste 31 Sudoeste 0 -- -- 68
2019-11-07 08:00:00 16 10 Oeste 23 Oeste 0 -- -- 72
2019-11-07 07:00:00 14.3 4 Oeste 24 Oeste 0 -- -- 74
2019-11-07 06:00:00 15.4 12 Oeste 30 Oeste 0 -- -- 80
2019-11-07 05:00:00 9.5 5 Nordeste 12 Este 0 -- -- 90
2019-11-07 04:00:00 9.1 4 Este 9 Este 0 -- -- 90
2019-11-07 03:00:00 8.8 5 Este 9 Este 0 -- -- 89
2019-11-07 02:00:00 9 4 Este 8 Este 0 -- -- 88
2019-11-07 01:00:00 8.9 6 Este 8 Este 0 -- -- 87
2019-11-07 00:00:00 8.8 4 Este 8 Este 0 -- -- 85
2019-11-06 23:00:00 9.2 5 Este 8 Este 0 -- -- 83
2019-11-06 22:00:00 10.1 5 Nordeste 10 Este 0 -- -- 78
2019-11-06 21:00:00 12 0 Calma 15 Noroeste 0 -- -- 71
2019-11-06 20:00:00 13 6 Noroeste 23 Oeste 0 -- -- 72
2019-11-06 19:00:00 12.2 3 Sudeste 6 Noroeste 0 -- -- 73
2019-11-06 18:00:00 14.8 5 Noroeste 17 Oeste 0 -- -- 63
2019-11-06 17:00:00 17.2 10 Noroeste 24 Noroeste 0 -- -- 57
2019-11-06 16:00:00 18.7 11 Norte 28 Oeste 0 -- -- 55
2019-11-06 15:00:00 17.3 10 Noroeste 28 Noroeste 0 -- -- 57
2019-11-06 14:00:00 18.3 12 Norte 42 Noroeste 0 -- -- 58
2019-11-06 13:00:00 17.4 15 Noroeste 33 Norte 0 -- -- 61
2019-11-06 12:00:00 16.7 18 Norte 46 Norte 0 -- -- 58
2019-11-06 11:00:00 16.8 14 Norte 38 Norte 0 -- -- 59
2019-11-06 10:00:00 17 19 Norte 44 Noroeste 0 -- -- 58
2019-11-06 09:00:00 16 4 Norte 38 Noroeste 0 -- -- 58
2019-11-06 08:00:00 15.8 9 Norte 47 Norte 0 -- -- 57
2019-11-06 07:00:00 15.4 12 Norte 45 Norte 0 -- -- 58
2019-11-06 06:00:00 16.2 18 Oeste 37 Oeste 0 -- -- 56
2019-11-06 05:00:00 15.7 20 Noroeste 36 Norte 0 -- -- 55
2019-11-06 04:00:00 16.4 16 Noroeste 43 Oeste 0 -- -- 55
2019-11-06 03:00:00 16.6 13 Oeste 29 Noroeste 0 -- -- 56
2019-11-06 02:00:00 14.9 7 Noroeste 21 Oeste 0 -- -- 64
2019-11-06 01:00:00 15.6 4 Oeste 25 Noroeste 0 -- -- 66
2019-11-06 00:00:00 16.3 6 Norte 28 Noroeste 0 -- -- 63
2019-11-05 23:00:00 17.1 12 Noroeste 39 Oeste 0 -- -- 56
2019-11-05 22:00:00 18.8 28 Sudoeste 46 Oeste 0 -- -- 55
2019-11-05 21:00:00 17.5 6 Oeste 28 Norte 0 -- -- 49
2019-11-05 20:00:00 17.9 10 Oeste 28 Sudoeste 0 -- -- 51
2019-11-05 19:00:00 17.8 10 Oeste 27 Oeste 0 -- -- 54
2019-11-05 18:00:00 17.7 12 Noroeste 26 Oeste 0 -- -- 50
2019-11-05 17:00:00 18.2 12 Oeste 27 Sudoeste 0 -- -- 48
2019-11-05 16:00:00 19.5 11 Oeste 41 Oeste 0 -- -- 47
2019-11-05 15:00:00 19.8 17 Oeste 41 Noroeste 0 -- -- 48
2019-11-05 14:00:00 18.9 16 Noroeste 39 Oeste 0 -- -- 51
2019-11-05 13:00:00 19.8 22 Oeste 47 Sudoeste 0 -- -- 53
2019-11-05 12:00:00 19.8 12 Oeste 39 Noroeste 0 -- -- 54
2019-11-05 11:00:00 18.8 8 Noroeste 50 Noroeste 0 -- -- 60
2019-11-05 10:00:00 18.8 21 Noroeste 41 Oeste 0 -- -- 54
2019-11-05 09:00:00 18.5 9 Noroeste 52 Oeste 0 -- -- 59
2019-11-05 08:00:00 18.7 22 Oeste 54 Sudoeste 0 -- -- 58
2019-11-05 07:00:00 19.2 26 Oeste 62 Sudoeste 0 -- -- 57
2019-11-05 06:00:00 19.9 27 Oeste 56 Oeste 0 -- -- 65
2019-11-05 05:00:00 20.5 21 Oeste 48 Sudoeste 0 -- -- 63
2019-11-05 04:00:00 20.4 18 Oeste 41 Oeste 0 -- -- 62
2019-11-05 03:00:00 20.5 23 Oeste 46 Oeste 0 -- -- 60
2019-11-05 02:00:00 20.4 21 Oeste 45 Sudoeste 0 -- -- 61
2019-11-05 01:00:00 20.6 25 Oeste 51 Oeste 0 -- -- 63
2019-11-05 00:00:00 20.5 17 Oeste 53 Sudoeste 0 -- -- 65
2019-11-04 23:00:00 20.8 20 Oeste 40 Oeste 0 -- -- 62
2019-11-04 22:00:00 21.1 21 Oeste 53 Oeste 0 -- -- 58
2019-11-04 21:00:00 20.7 18 Oeste 45 Sudoeste 0 -- -- 68
2019-11-04 20:00:00 20.5 17 Oeste 39 Oeste 0 -- -- 71
2019-11-04 19:00:00 20.4 13 Sudoeste 29 Sudoeste 0 -- -- 71
2019-11-04 18:00:00 20.6 16 Oeste 35 Oeste 0 -- -- 67
2019-11-04 17:00:00 21.4 19 Oeste 36 Sudoeste 0 -- -- 65
2019-11-04 16:00:00 22.4 18 Sudoeste 45 Oeste 0 -- -- 62
2019-11-04 15:00:00 22.4 21 Oeste 54 Sudoeste 0 -- -- 62
2019-11-04 14:00:00 22.4 29 Oeste 62 Oeste 0 -- -- 60
2019-11-04 13:00:00 22.2 26 Oeste 59 Noroeste 0 -- -- 62
2019-11-04 12:00:00 21.6 31 Oeste 58 Sudoeste 0 -- -- 65
2019-11-04 11:00:00 21.2 26 Oeste 52 Oeste 0 -- -- 68
2019-11-04 10:00:00 20.7 24 Oeste 48 Sudoeste 0 -- -- 69
2019-11-04 09:00:00 19.6 26 Oeste 45 Noroeste 0 -- -- 73
2019-11-04 08:00:00 18.9 13 Oeste 33 Oeste 0 -- -- 75
2019-11-04 07:00:00 18.7 13 Oeste 28 Noroeste 0 -- -- 73
2019-11-04 06:00:00 18.3 8 Oeste 19 Oeste 0 -- -- 73
2019-11-04 05:00:00 18.5 8 Oeste 27 Oeste 0 -- -- 71
2019-11-04 04:00:00 18.5 10 Oeste 27 Sudoeste 0 -- -- 70
2019-11-04 03:00:00 12.7 4 Norte 15 Oeste 0 -- -- 79
2019-11-04 02:00:00 12 3 Este 9 Nordeste 0 -- -- 78
2019-11-04 01:00:00 14.4 3 Sudeste 19 Noroeste 0 -- -- 71
2019-11-04 00:00:00 15.7 11 Noroeste 23 Noroeste 0 -- -- 67
2019-11-03 23:00:00 18.1 7 Oeste 30 Noroeste 0 -- -- 65
2019-11-03 22:00:00 14.3 2 Norte 18 Noroeste 0 -- -- 72
2019-11-03 21:00:00 13.8 6 Noroeste 15 Norte 0 -- -- 72
2019-11-03 20:00:00 17 6 Noroeste 24 Norte 0 -- -- 59
2019-11-03 19:00:00 18.6 6 Norte 26 Norte 0 -- -- 54
2019-11-03 18:00:00 18.5 13 Noroeste 28 Norte 0 -- -- 53
2019-11-03 17:00:00 20.8 8 Oeste 37 Norte 0 -- -- 49
2019-11-03 16:00:00 20.8 13 Noroeste 47 Norte 0 -- -- 52
2019-11-03 15:00:00 19.9 18 Oeste 52 Noroeste 0 -- -- 63
2019-11-03 14:00:00 16.4 8 Noroeste 32 Norte 1 -- -- 79
2019-11-03 13:00:00 14.3 23 Norte 84 Noroeste 1.6 -- -- 77
2019-11-03 12:00:00 22.6 35 Oeste 70 Oeste 0 -- -- 58
2019-11-03 11:00:00 21.8 39 Oeste 65 Oeste 0 -- -- 62
2019-11-03 10:00:00 21.3 33 Oeste 67 Oeste 0 -- -- 61
2019-11-03 09:00:00 20.9 27 Oeste 63 Oeste 0 -- -- 61
2019-11-03 08:00:00 20.4 33 Oeste 69 Oeste 0 -- -- 62
2019-11-03 07:00:00 20.6 32 Oeste 73 Oeste 0 -- -- 62
2019-11-03 06:00:00 20.8 24 Oeste 52 Oeste 0 -- -- 73
2019-11-03 05:00:00 21.5 19 Oeste 39 Oeste 0 -- -- 71
2019-11-03 04:00:00 21.8 26 Oeste 53 Oeste 0 -- -- 66
2019-11-03 03:00:00 22 22 Oeste 50 Sudoeste 0 -- -- 65
2019-11-03 02:00:00 21.9 16 Sudoeste 44 Oeste 0 -- -- 68
2019-11-03 01:00:00 21.7 13 Sudoeste 35 Oeste 0 -- -- 70
2019-11-03 00:00:00 21.8 13 Oeste 36 Sudoeste 0 -- -- 70
2019-11-02 23:00:00 21.4 9 Sudoeste 29 Sudoeste 0 -- -- 78
2019-11-02 22:00:00 21.3 11 Sudoeste 26 Oeste 0 -- -- 81
2019-11-02 21:00:00 19.7 3 Oeste 15 Oeste 0 -- -- 83
2019-11-02 20:00:00 20.5 5 Oeste 17 Sudoeste 0 -- -- 81
2019-11-02 19:00:00 20.8 5 Oeste 21 Sudoeste 0 -- -- 80
2019-11-02 18:00:00 21.3 12 Sudoeste 30 Sudoeste 0 -- -- 74
2019-11-02 17:00:00 22.6 11 Oeste 29 Oeste 0 -- -- 71
2019-11-02 16:00:00 23.3 13 Oeste 30 Oeste 0 -- -- 72
2019-11-02 15:00:00 23.7 14 Oeste 31 Oeste 0 -- -- 74
2019-11-02 14:00:00 23.7 15 Oeste 30 Oeste 0 -- -- 77
2019-11-02 13:00:00 22.3 12 Oeste 29 Oeste 0 -- -- 81
2019-11-02 12:00:00 22.8 13 Oeste 24 Sudoeste 0 -- -- 80
2019-11-02 11:00:00 23.5 9 Sudoeste 19 Oeste 0 -- -- 82
2019-11-02 10:00:00 21.7 4 Noroeste 9 Sudoeste 0 -- -- 94
2019-11-02 09:00:00 18.6 3 Oeste 6 Sudoeste 0 -- -- 96
2019-11-02 08:00:00 17.1 6 Nordeste 12 Este 0 -- -- 96
2019-11-02 07:00:00 16.8 4 Sudeste 14 Este 0 -- -- 96
2019-11-02 06:00:00 17.4 5 Este 12 Noroeste 0 -- -- 96
2019-11-02 05:00:00 18.2 4 Este 24 Noroeste 0 -- -- 95
2019-11-02 04:00:00 19 5 Oeste 13 Oeste 0 -- -- 96
2019-11-02 03:00:00 18.3 3 Sudoeste 11 Sudoeste 0 -- -- 97
2019-11-02 02:00:00 17.5 0 Calma 7 Este 0 -- -- 96
2019-11-02 01:00:00 17.4 0 Calma 8 Este 0 -- -- 96
2019-11-02 00:00:00 16.6 3 Este 5 Este 0 -- -- 96
2019-11-01 23:00:00 16.7 0 Calma 8 Este 0 -- -- 95
2019-11-01 22:00:00 16.6 3 Nordeste 6 Este 0 -- -- 94
2019-11-01 21:00:00 16.7 2 Este 6 Noroeste 0 -- -- 94
2019-11-01 20:00:00 17.1 0 Calma 4 Norte 0 -- -- 92
2019-11-01 19:00:00 18.3 2 Este 5 Norte 0 -- -- 89
2019-11-01 18:00:00 19.8 2 Norte 9 Sudoeste 0 -- -- 84
2019-11-01 17:00:00 22 4 Oeste 12 Oeste 0 -- -- 79
2019-11-01 16:00:00 21.9 5 Oeste 15 Sudoeste 0 -- -- 78
2019-11-01 15:00:00 22.4 7 Oeste 21 Oeste 0 -- -- 77
2019-11-01 14:00:00 23.6 12 Sudoeste 23 Sudoeste 0 -- -- 76
2019-11-01 13:00:00 23.4 10 Sudoeste 21 Sudoeste 0 -- -- 77
2019-11-01 12:00:00 21.9 11 Oeste 22 Sudoeste 0 -- -- 82
2019-11-01 11:00:00 21.7 10 Sudoeste 18 Sudoeste 0 -- -- 84
2019-11-01 10:00:00 21.8 4 Sur 6 Sur 0 -- -- 87
2019-11-01 09:00:00 18.6 2 Este 6 Este 0 -- -- 95
2019-11-01 08:00:00 14.1 5 Este 8 Este 0 -- -- 96
2019-11-01 07:00:00 13 3 Este 11 Este 0 -- -- 95
2019-11-01 06:00:00 13.6 3 Nordeste 8 Este 0 -- -- 96
2019-11-01 05:00:00 13.9 4 Este 8 Este 0 -- -- 95
2019-11-01 04:00:00 13.4 4 Este 8 Este 0 -- -- 94
2019-11-01 03:00:00 13.5 0 Calma 9 Este 0 -- -- 94
2019-11-01 02:00:00 14 0 Calma 6 Este 0 -- -- 93
2019-11-01 01:00:00 14.7 3 Nordeste 6 Norte 0 -- -- 92
2019-11-01 00:00:00 15.8 0 Calma 7 Norte 0 -- -- 90
2019-10-31 23:00:00 16.8 4 Noroeste 7 Noroeste 0 -- -- 88
2019-10-31 22:00:00 16.6 5 Noroeste 8 Noroeste 0 -- -- 89
2019-10-31 21:00:00 15.9 8 Norte 12 Norte 0 -- -- 90
2019-10-31 20:00:00 15.8 5 Norte 8 Noroeste 0 -- -- 87
2019-10-31 19:00:00 17.6 3 Norte 12 Noroeste 0 -- -- 80
2019-10-31 18:00:00 19.7 8 Norte 22 Noroeste 0 -- -- 76
2019-10-31 17:00:00 21.2 12 Noroeste 37 Norte 0 -- -- 72
2019-10-31 16:00:00 22.3 15 Norte 39 Norte 0 -- -- 70
2019-10-31 15:00:00 22.6 21 Norte 39 Norte 0 -- -- 68
2019-10-31 14:00:00 23.8 14 Norte 31 Noroeste 0 -- -- 67
2019-10-31 13:00:00 23.7 16 Norte 31 Norte 0 -- -- 68
2019-10-31 12:00:00 23.3 12 Noroeste 28 Norte 0 -- -- 71
2019-10-31 11:00:00 24.1 8 Noroeste 15 Noroeste 0 -- -- 79
2019-10-31 10:00:00 21.6 0 Calma 4 Sur 0 -- -- 95
2019-10-31 09:00:00 17.7 4 Este 6 Este 0 -- -- 98
2019-10-31 08:00:00 16.1 4 Este 8 Este 0 -- -- 98
2019-10-31 07:00:00 15.3 0 Calma 9 Este 0 -- -- 98
2019-10-31 06:00:00 15.1 2 Este 8 Este 0 -- -- 97
2019-10-31 05:00:00 15 3 Este 5 Este 0 -- -- 97
2019-10-31 04:00:00 15 3 Este 6 Este 0 -- -- 96
2019-10-31 03:00:00 14.3 4 Nordeste 7 Este 0 -- -- 96
2019-10-31 02:00:00 14.8 2 Este 10 Este 0 -- -- 95
2019-10-31 01:00:00 14.5 2 Este 8 Este 0 -- -- 95
2019-10-31 00:00:00 14.1 2 Nordeste 7 Este 0 -- -- 95
2019-10-30 23:00:00 14.1 0 Calma 6 Este 0 -- -- 95
2019-10-30 22:00:00 14.5 0 Calma 5 Este 0 -- -- 94
2019-10-30 21:00:00 15.2 3 Este 5 Noroeste 0 -- -- 93
2019-10-30 20:00:00 15.8 3 Nordeste 5 Este 0 -- -- 91
2019-10-30 19:00:00 16.9 0 Calma 6 Norte 0 -- -- 89
2019-10-30 18:00:00 19 0 Calma 5 Noroeste 0 -- -- 82
2019-10-30 17:00:00 22.5 3 Oeste 19 Oeste 0 -- -- 73
2019-10-30 16:00:00 22.7 9 Oeste 21 Sudoeste 0 -- -- 77
2019-10-30 15:00:00 23.1 13 Sudoeste 23 Sudoeste 0 -- -- 76
2019-10-30 14:00:00 23.1 13 Sudoeste 22 Sudoeste 0 -- -- 77
2019-10-30 13:00:00 22.9 14 Sudoeste 22 Sudoeste 0 -- -- 81
2019-10-30 12:00:00 22.3 12 Sudoeste 21 Sur 0 -- -- 85
2019-10-30 11:00:00 22 9 Sur 17 Sur 0 -- -- 87
2019-10-30 10:00:00 21.5 2 Sur 8 Este 0 -- -- 94
2019-10-30 09:00:00 18 3 Nordeste 8 Este 0 -- -- 98
2019-10-30 08:00:00 14.8 4 Este 7 Este 0 -- -- 98
2019-10-30 07:00:00 14.3 6 Este 9 Este 0 -- -- 99
2019-10-30 06:00:00 14.6 3 Este 9 Este 0 -- -- 98
2019-10-30 05:00:00 14.7 4 Este 8 Este 0 -- -- 98
2019-10-30 04:00:00 14.9 3 Nordeste 8 Este 0 -- -- 98
2019-10-30 03:00:00 15.1 0 Calma 8 Este 0 -- -- 98
2019-10-30 02:00:00 15.3 5 Este 8 Este 0 -- -- 97
2019-10-30 01:00:00 15.2 0 Calma 7 Este 0 -- -- 96
2019-10-30 00:00:00 15.4 5 Este 7 Este 0 -- -- 96
2019-10-29 23:00:00 15.8 3 Este 6 Este 0 -- -- 95
2019-10-29 22:00:00 16.2 3 Este 8 Este 0 -- -- 94
2019-10-29 21:00:00 16.5 2 Este 5 Este 0 -- -- 93
2019-10-29 20:00:00 17.2 2 Este 5 Este 0 -- -- 92
2019-10-29 19:00:00 18.1 0 Calma 3 Este 0 -- -- 89
2019-10-29 18:00:00 19.6 0 Calma 8 Sudoeste 0 -- -- 83
2019-10-29 17:00:00 21.2 5 Sudoeste 12 Sur 0 -- -- 79
2019-10-29 16:00:00 21.4 7 Sudoeste 16 Sudoeste 0 -- -- 78
2019-10-29 15:00:00 22.3 9 Sudoeste 20 Sudoeste 0 -- -- 77
2019-10-29 14:00:00 23.5 10 Sudoeste 18 Sur 0 -- -- 76
2019-10-29 13:00:00 23.1 10 Sudoeste 23 Sudoeste 0 -- -- 78
2019-10-29 12:00:00 22.3 12 Sudoeste 17 Sur 0 -- -- 79
2019-10-29 11:00:00 21.7 11 Sudoeste 18 Oeste 0 -- -- 84
2019-10-29 10:00:00 20.7 7 Sudoeste 14 Oeste 0 -- -- 93
2019-10-29 09:00:00 17.9 0 Calma 8 Este 0 -- -- 97
2019-10-29 08:00:00 15.7 0 Calma 6 Este 0 -- -- 97
2019-10-29 07:00:00 14.8 3 Este 6 Este 0 -- -- 97
2019-10-29 06:00:00 15.4 3 Este 6 Este 0 -- -- 97
2019-10-29 05:00:00 15.6 0 Calma 5 Este 0 -- -- 96
2019-10-29 04:00:00 16.2 2 Este 6 Nordeste 0 -- -- 96
2019-10-29 03:00:00 16.4 0 Calma 6 Este 0 -- -- 96
2019-10-29 02:00:00 16.3 3 Nordeste 5 Norte 0 -- -- 96
2019-10-29 01:00:00 16.2 0 Calma 8 Noroeste 0 -- -- 96
2019-10-29 00:00:00 16.2 5 Nordeste 9 Este 0 -- -- 95
2019-10-28 23:00:00 15.9 0 Calma 5 Este 0 -- -- 95
2019-10-28 22:00:00 15.7 3 Nordeste 6 Este 0 -- -- 94
2019-10-28 21:00:00 15.9 3 Este 5 Nordeste 0 -- -- 93
2019-10-28 20:00:00 16 3 Este 7 Este 0 -- -- 91
2019-10-28 19:00:00 16.8 3 Este 5 Este 0 -- -- 88
2019-10-28 18:00:00 19.1 3 Noroeste 10 Oeste 0 -- -- 82
2019-10-28 17:00:00 21 7 Sudoeste 13 Sur 0 -- -- 78
2019-10-28 16:00:00 20.9 6 Sudoeste 15 Sudoeste 0 -- -- 78
2019-10-28 15:00:00 21.4 9 Sudoeste 17 Sudoeste 0 -- -- 79
2019-10-28 14:00:00 22.8 9 Sudoeste 19 Sudoeste 0 -- -- 77
2019-10-28 13:00:00 22.2 10 Sudoeste 19 Oeste 0 -- -- 79
2019-10-28 12:00:00 22.2 9 Sudoeste 15 Sur 0 -- -- 80
2019-10-28 11:00:00 21.6 7 Sudoeste 12 Sudoeste 0 -- -- 83
2019-10-28 10:00:00 21.2 3 Sudeste 8 Este 0 -- -- 90
2019-10-28 09:00:00 18 2 Sudeste 5 Este 0 -- -- 97
2019-10-28 08:00:00 14.3 0 Calma 7 Noroeste 0 -- -- 97
2019-10-28 07:00:00 12.9 2 Nordeste 8 Este 0 -- -- 98
2019-10-28 06:00:00 13.1 0 Calma 6 Este 0 -- -- 98
2019-10-28 05:00:00 13.2 5 Nordeste 8 Este 0 -- -- 96
2019-10-28 04:00:00 13.2 0 Calma 6 Este 0 -- -- 97
2019-10-28 03:00:00 13.1 2 Nordeste 6 Este 0 -- -- 96
2019-10-28 02:00:00 13.5 3 Este 5 Este 0 -- -- 96
2019-10-28 01:00:00 13.9 4 Este 6 Este 0 -- -- 95
2019-10-28 00:00:00 14 2 Norte 6 Este 0 -- -- 95
2019-10-27 23:00:00 14.3 0 Calma 6 Este 0 -- -- 93
2019-10-27 22:00:00 15.4 4 Este 7 Este 0 -- -- 92
2019-10-27 21:00:00 15.6 0 Calma 7 Nordeste 0 -- -- 90
2019-10-27 20:00:00 17.2 3 Nordeste 12 Norte 0 -- -- 87
2019-10-27 19:00:00 17.3 0 Calma 7 Norte 0 -- -- 85
2019-10-27 18:00:00 19.3 2 Nordeste 11 Sur 0 -- -- 77
2019-10-27 17:00:00 22.7 9 Sur 13 Oeste 0 -- -- 67
2019-10-27 16:00:00 24.4 7 Oeste 16 Sudoeste 0 -- -- 64
2019-10-27 15:00:00 23.8 9 Sur 20 Sur 0 -- -- 70
2019-10-27 14:00:00 23.1 12 Sur 20 Sudoeste 0 -- -- 72
2019-10-27 13:00:00 22.9 12 Sur 20 Sur 0 -- -- 72
2019-10-27 12:00:00 22.4 10 Sudoeste 17 Sudoeste 0 -- -- 74
2019-10-27 11:00:00 22.1 7 Oeste 13 Sudoeste 0 -- -- 76
2019-10-27 10:00:00 21.2 3 Sur 5 Sur 0 -- -- 84
2019-10-27 09:00:00 18.4 0 Calma 8 Este 0 -- -- 94
2019-10-27 08:00:00 14.2 2 Nordeste 8 Este 0 -- -- 96
2019-10-27 07:00:00 13.7 0 Calma 8 Este 0 -- -- 97
2019-10-27 06:00:00 13.9 3 Nordeste 8 Norte 0 -- -- 96
2019-10-27 05:00:00 13.8 2 Nordeste 6 Este 0 -- -- 96
2019-10-27 04:00:00 13.8 0 Calma 11 Este 0 -- -- 96
2019-10-27 03:00:00 14.3 0 Calma 14 Norte 0 -- -- 94
2019-10-27 02:00:00 13.8 0 Calma 4 Norte 0 -- -- 94
2019-10-27 01:00:00 15.1 2 Nordeste 10 Este 0 -- -- 92
2019-10-27 00:00:00 14.6 0 Calma 6 Este 0 -- -- 93
2019-10-26 23:00:00 14.7 0 Calma 6 Noroeste 0 -- -- 92
2019-10-26 22:00:00 15.3 0 Calma 7 Norte 0 -- -- 91
2019-10-26 21:00:00 15.7 0 Calma 5 Norte 0 -- -- 88
2019-10-26 20:00:00 16.8 0 Calma 6 Nordeste 0 -- -- 84
2019-10-26 19:00:00 19.1 5 Noroeste 8 Sur 0 -- -- 75
2019-10-26 18:00:00 24.2 2 Sudeste 11 Sur 0 -- -- 61
2019-10-26 17:00:00 23.8 9 Sudoeste 14 Sudoeste 0 -- -- 59
2019-10-26 16:00:00 24.5 5 Sur 14 Sudoeste 0 -- -- 57
2019-10-26 15:00:00 23.4 8 Sudoeste 18 Sur 0 -- -- 58
2019-10-26 14:00:00 22.2 11 Sur 17 Sur 0 -- -- 62
2019-10-26 13:00:00 22.6 8 Sur 13 Sudoeste 0 -- -- 61
2019-10-26 12:00:00 22 6 Sur 9 Sudoeste 0 -- -- 67
2019-10-26 11:00:00 20.6 3 Sudoeste 6 Este 0 -- -- 75
2019-10-26 10:00:00 16.8 3 Este 7 Este 0 -- -- 90
2019-10-26 09:00:00 12.7 6 Este 12 Este 0 -- -- 95
2019-10-26 08:00:00 11 6 Nordeste 13 Este 0 -- -- 96
2019-10-26 07:00:00 10.1 3 Nordeste 9 Este 0 -- -- 94
2019-10-26 06:00:00 10.2 4 Nordeste 8 Norte 0 -- -- 93
2019-10-26 05:00:00 11.1 2 Este 8 Este 0 -- -- 92
2019-10-26 04:00:00 11.5 3 Nordeste 10 Este 0 -- -- 90
2019-10-26 03:00:00 11.2 0 Calma 6 Nordeste 0 -- -- 91
2019-10-26 02:00:00 11.1 2 Este 6 Este 0 -- -- 89
2019-10-26 01:00:00 12.2 0 Calma 13 Norte 0 -- -- 86
2019-10-26 00:00:00 13.5 8 Norte 13 Norte 0 -- -- 87
2019-10-25 23:00:00 12.3 3 Norte 15 Noroeste 0 -- -- 87
2019-10-25 22:00:00 13.2 9 Norte 16 Norte 0 -- -- 83
2019-10-25 21:00:00 13.4 5 Norte 8 Norte 0 -- -- 79
2019-10-25 20:00:00 15.1 6 Norte 12 Norte 0 -- -- 73
2019-10-25 19:00:00 18.1 8 Norte 28 Norte 0 -- -- 64
2019-10-25 18:00:00 20.7 17 Norte 32 Noroeste 0 -- -- 59
2019-10-25 17:00:00 21.6 14 Norte 27 Norte 0 -- -- 62
2019-10-25 16:00:00 22.1 12 Noroeste 25 Noroeste 0 -- -- 63
2019-10-25 15:00:00 22 13 Noroeste 29 Noroeste 0 -- -- 63
2019-10-25 14:00:00 21.3 17 Noroeste 35 Noroeste 0 -- -- 66
2019-10-25 13:00:00 21 16 Norte 31 Norte 0 -- -- 67
2019-10-25 12:00:00 20.7 14 Noroeste 24 Norte 0 -- -- 68
2019-10-25 11:00:00 20 14 Norte 32 Norte 0 -- -- 73
2019-10-25 10:00:00 19.3 8 Norte 21 Noroeste 0 -- -- 79
2019-10-25 09:00:00 13.9 8 Este 16 Este 0 -- -- 90
2019-10-25 08:00:00 11.5 5 Este 12 Este 0 -- -- 92
2019-10-25 07:00:00 11.9 5 Norte 18 Este 0 -- -- 90
2019-10-25 06:00:00 11.8 4 Nordeste 8 Este 0 -- -- 88
2019-10-25 05:00:00 13.2 4 Sudeste 12 Norte 0 -- -- 84
2019-10-25 04:00:00 13.9 4 Norte 14 Norte 0 -- -- 81
2019-10-25 03:00:00 12.9 6 Norte 10 Noroeste 0 -- -- 84
2019-10-25 02:00:00 14.1 3 Este 6 Sudeste 0 -- -- 77
2019-10-25 01:00:00 17.3 3 Noroeste 21 Norte 0 -- -- 65
2019-10-25 00:00:00 18.3 9 Norte 27 Noroeste 0 -- -- 64
2019-10-24 23:00:00 17.5 10 Noroeste 28 Noroeste 0 -- -- 67
2019-10-24 22:00:00 17.9 12 Noroeste 27 Norte 0 -- -- 70
2019-10-24 21:00:00 16.2 7 Noroeste 16 Norte 0 -- -- 77
2019-10-24 20:00:00 16.2 6 Noroeste 15 Noroeste 0 -- -- 74
2019-10-24 19:00:00 17.2 10 Noroeste 30 Norte 0 -- -- 69
2019-10-24 18:00:00 19.4 12 Norte 32 Norte 0 -- -- 66
2019-10-24 17:00:00 19.1 10 Norte 25 Noroeste 0 -- -- 67
2019-10-24 16:00:00 21 10 Norte 22 Norte 0 -- -- 60
2019-10-24 15:00:00 20.5 13 Noroeste 27 Norte 0 -- -- 64
2019-10-24 14:00:00 20.4 10 Noroeste 26 Sudoeste 0 -- -- 66
2019-10-24 13:00:00 18.9 10 Oeste 24 Oeste 0 -- -- 70
2019-10-24 12:00:00 19.3 7 Oeste 16 Noroeste 0 -- -- 75
2019-10-24 11:00:00 17.2 5 Noroeste 10 Noroeste 0.2 -- -- 89
2019-10-24 10:00:00 16.5 2 Este 7 Este 0 -- -- 92
2019-10-24 09:00:00 12.3 3 Este 8 Este 0 -- -- 96
2019-10-24 08:00:00 11.4 3 Nordeste 11 Este 0 -- -- 96
2019-10-24 07:00:00 11.3 0 Calma 8 Este 0 -- -- 96
2019-10-24 06:00:00 11.2 0 Calma 8 Este 0 -- -- 95
2019-10-24 05:00:00 11.3 0 Calma 8 Este 0 -- -- 95
2019-10-24 04:00:00 11.7 0 Calma 8 Este 0 -- -- 94
2019-10-24 03:00:00 12.4 3 Este 8 Este 0 -- -- 92
2019-10-24 02:00:00 13.2 0 Calma 11 Este 0.2 -- -- 90
2019-10-24 01:00:00 15.3 4 Noroeste 26 Oeste 0 -- -- 85
2019-10-24 00:00:00 13.6 0 Calma 10 Este 0 -- -- 94
2019-10-23 23:00:00 12.8 5 Nordeste 10 Este 0 -- -- 96
2019-10-23 22:00:00 12.5 2 Nordeste 8 Nordeste 0 -- -- 95
2019-10-23 21:00:00 12.4 3 Nordeste 9 Norte 0 -- -- 94
2019-10-23 20:00:00 13.2 3 Norte 10 Norte 0 -- -- 92
2019-10-23 19:00:00 13.7 5 Norte 9 Noroeste 0.2 -- -- 89
2019-10-23 18:00:00 14.9 0 Calma 25 Sudoeste 1.2 -- -- 83
2019-10-23 17:00:00 17.6 8 Sudoeste 19 Sudoeste 0 -- -- 69
2019-10-23 16:00:00 19.6 9 Sudoeste 31 Sudoeste 0 -- -- 66
2019-10-23 15:00:00 18.7 15 Sudoeste 24 Sudoeste 0 -- -- 68
2019-10-23 14:00:00 18.7 13 Sudoeste 26 Oeste 0 -- -- 68
2019-10-23 13:00:00 19 12 Sudoeste 24 Sudoeste 0 -- -- 71
2019-10-23 12:00:00 19.3 14 Sudoeste 30 Sudoeste 0 -- -- 69
2019-10-23 11:00:00 19 15 Sudoeste 25 Sudoeste 0 -- -- 71
2019-10-23 10:00:00 18.1 12 Sudoeste 19 Sudoeste 0 -- -- 76
2019-10-23 09:00:00 17.4 7 Sudoeste 26 Sudoeste 0 -- -- 80
2019-10-23 08:00:00 17.8 13 Sudoeste 27 Oeste 0 -- -- 86
2019-10-23 07:00:00 16.1 5 Sudoeste 10 Sudoeste 0 -- -- 97
2019-10-23 06:00:00 15.3 4 Noroeste 14 Este 0 -- -- 97
2019-10-23 05:00:00 15.3 4 Nordeste 10 Nordeste 0 -- -- 96
2019-10-23 04:00:00 15.9 3 Oeste 19 Oeste 0.2 -- -- 97
2019-10-23 03:00:00 16.3 9 Oeste 22 Oeste 0.2 -- -- 98
2019-10-23 02:00:00 16.2 5 Oeste 17 Sudoeste 1 -- -- 98
2019-10-23 01:00:00 16 10 Oeste 41 Oeste 14.8 -- -- 97
2019-10-23 00:00:00 16.8 16 Oeste 39 Sudoeste 15.6 -- -- 97
2019-10-22 23:00:00 18 13 Sudoeste 48 Oeste 16.6 -- -- 96
2019-10-22 22:00:00 18.9 6 Noroeste 28 Oeste 2.6 -- -- 95
2019-10-22 21:00:00 19.6 6 Sudeste 31 Oeste 4 -- -- 94
2019-10-22 20:00:00 20.8 10 Sudoeste 18 Sudoeste 0 -- -- 93
2019-10-22 19:00:00 21.5 5 Norte 20 Sudeste 0.2 -- -- 89
2019-10-22 18:00:00 22.7 8 Este 18 Este 0 -- -- 86
2019-10-22 17:00:00 22.8 8 Nordeste 23 Este 0 -- -- 86
2019-10-22 16:00:00 25.3 11 Sur 30 Sudeste 0 -- -- 80
2019-10-22 15:00:00 24.8 15 Sudeste 32 Sudeste 0 -- -- 84
2019-10-22 14:00:00 24.9 19 Sudeste 37 Sudeste 0 -- -- 82
2019-10-22 13:00:00 24.3 13 Sudeste 32 Sur 0 -- -- 83
2019-10-22 12:00:00 23.1 12 Este 40 Este 0 -- -- 85
2019-10-22 11:00:00 22 16 Este 35 Nordeste 0 -- -- 85
2019-10-22 10:00:00 20.6 10 Nordeste 30 Nordeste 0 -- -- 84
2019-10-22 09:00:00 19.4 12 Nordeste 40 Nordeste 0 -- -- 87
2019-10-22 08:00:00 18.9 11 Nordeste 37 Nordeste 0 -- -- 92
2019-10-22 07:00:00 18.3 13 Nordeste 31 Nordeste 0 -- -- 95
2019-10-22 06:00:00 17.7 15 Nordeste 33 Este 0.4 -- -- 97
2019-10-22 05:00:00 16.7 12 Nordeste 21 Nordeste 7.2 -- -- 97
2019-10-22 04:00:00 16.5 9 Este 23 Nordeste 11 -- -- 95
2019-10-22 03:00:00 16.5 6 Nordeste 21 Oeste 2.2 -- -- 93
2019-10-22 02:00:00 17.4 12 Nordeste 23 Norte 0 -- -- 94
2019-10-22 01:00:00 15.9 12 Norte 21 Nordeste 0.2 -- -- 96
2019-10-22 00:00:00 14.7 8 Nordeste 19 Norte 1.4 -- -- 96
2019-10-21 23:00:00 14.7 8 Norte 16 Nordeste 8.4 -- -- 95
2019-10-21 22:00:00 15.1 7 Norte 17 Nordeste 4.4 -- -- 94
2019-10-21 21:00:00 15.5 3 Este 10 Nordeste 0.2 -- -- 94
2019-10-21 20:00:00 15.5 3 Norte 9 Nordeste 0 -- -- 94
2019-10-21 19:00:00 15.9 3 Nordeste 9 Nordeste 0 -- -- 94
2019-10-21 18:00:00 16.5 3 Nordeste 8 Norte 0.2 -- -- 94
2019-10-21 17:00:00 16.6 4 Norte 7 Norte 0.2 -- -- 93
2019-10-21 16:00:00 17.1 3 Norte 5 Norte 0 -- -- 92
2019-10-21 15:00:00 17.2 2 Nordeste 8 Este 0 -- -- 93
2019-10-21 14:00:00 17.1 0 Calma 6 Este 0.2 -- -- 95
2019-10-21 13:00:00 16.3 3 Nordeste 6 Noroeste 1.2 -- -- 95
2019-10-21 12:00:00 15.9 0 Calma 5 Este 0.6 -- -- 95
2019-10-21 11:00:00 15.3 4 Norte 15 Norte 1.2 -- -- 94
2019-10-21 10:00:00 15.2 3 Nordeste 12 Norte 0.4 -- -- 94
2019-10-21 09:00:00 15.1 5 Norte 16 Norte 0.2 -- -- 95
2019-10-21 08:00:00 14.8 3 Nordeste 8 Norte 0 -- -- 94
2019-10-21 07:00:00 15.2 4 Nordeste 11 Norte 0.6 -- -- 93
2019-10-21 06:00:00 15.5 7 Norte 12 Norte 0.2 -- -- 92
2019-10-21 05:00:00 16 4 Este 10 Este 1.2 -- -- 89
2019-10-21 04:00:00 17.8 10 Noroeste 19 Sur 0 -- -- 86
2019-10-21 03:00:00 18.6 4 Oeste 26 Sur 0 -- -- 82
2019-10-21 02:00:00 18.1 10 Sur 22 Sur 0 -- -- 92
2019-10-21 01:00:00 17.4 13 Sudoeste 23 Sudoeste 1.6 -- -- 94
2019-10-21 00:00:00 17.3 8 Oeste 23 Oeste 12.2 -- -- 93
2019-10-20 23:00:00 17.4 4 Este 9 Nordeste 0 -- -- 92
2019-10-20 22:00:00 17.5 3 Nordeste 9 Norte 0 -- -- 91
2019-10-20 21:00:00 17.7 2 Nordeste 11 Norte 0.2 -- -- 89
2019-10-20 20:00:00 17.9 3 Norte 10 Noroeste 0.2 -- -- 85
2019-10-20 19:00:00 19.2 4 Nordeste 17 Noroeste 0 -- -- 75
2019-10-20 18:00:00 21 8 Noroeste 23 Noroeste 0 -- -- 67
2019-10-20 17:00:00 22.4 10 Oeste 22 Oeste 0 -- -- 66
2019-10-20 16:00:00 23.5 6 Oeste 22 Sudoeste 0 -- -- 67
2019-10-20 15:00:00 24.5 9 Oeste 26 Sudoeste 0 -- -- 69
2019-10-20 14:00:00 23.2 13 Oeste 33 Sudoeste 0 -- -- 73
2019-10-20 13:00:00 24 18 Sudoeste 32 Sudoeste 0 -- -- 78
2019-10-20 12:00:00 24.4 12 Sudoeste 28 Sudoeste 0 -- -- 81
2019-10-20 11:00:00 23.3 15 Sudoeste 30 Sur 0 -- -- 83
2019-10-20 10:00:00 23.2 16 Sudoeste 32 Sudoeste 0 -- -- 83
2019-10-20 09:00:00 22.8 19 Sur 31 Sudoeste 0 -- -- 83
2019-10-20 08:00:00 22.7 14 Sudoeste 29 Sudoeste 0 -- -- 82
2019-10-20 07:00:00 22 7 Sur 20 Sudoeste 0 -- -- 83
2019-10-20 06:00:00 21 6 Sudeste 17 Sur 0 -- -- 86
2019-10-20 05:00:00 20.3 2 Este 13 Sur 0 -- -- 87
2019-10-20 04:00:00 21.1 6 Sudeste 25 Sur 0 -- -- 87
2019-10-20 03:00:00 21.4 13 Sur 28 Sur 0 -- -- 87
2019-10-20 02:00:00 21.1 6 Sudeste 21 Sur 0 -- -- 88
2019-10-20 01:00:00 21.1 9 Sudeste 23 Sudeste 0 -- -- 88
2019-10-20 00:00:00 21.2 6 Sudeste 14 Este 0 -- -- 87
2019-10-19 23:00:00 21.1 5 Sudeste 11 Este 0 -- -- 85
2019-10-19 22:00:00 21.8 6 Sudeste 18 Sur 0 -- -- 83
2019-10-19 21:00:00 21.1 5 Sudeste 11 Este 0 -- -- 84
2019-10-19 20:00:00 21.7 5 Sur 17 Sudoeste 0 -- -- 81
2019-10-19 19:00:00 22.3 11 Sudoeste 24 Sur 0 -- -- 80
2019-10-19 18:00:00 22.7 11 Sudoeste 24 Sur 0 -- -- 78
2019-10-19 17:00:00 23.6 15 Sudoeste 25 Sudoeste 0 -- -- 72
2019-10-19 16:00:00 24.6 16 Sudoeste 27 Sudoeste 0 -- -- 69
2019-10-19 15:00:00 24.9 14 Sudoeste 28 Sudoeste 0 -- -- 67
2019-10-19 14:00:00 24.2 17 Sudoeste 27 Sudoeste 0 -- -- 71
2019-10-19 13:00:00 24.4 14 Sudoeste 27 Sur 0 -- -- 74
2019-10-19 12:00:00 23.1 10 Sudoeste 21 Sudoeste 0 -- -- 78
2019-10-19 11:00:00 22.8 11 Sur 21 Sur 0 -- -- 87
2019-10-19 10:00:00 21.4 2 Nordeste 6 Este 0 -- -- 97
2019-10-19 09:00:00 17.2 4 Este 8 Norte 0 -- -- 98
2019-10-19 08:00:00 16.3 0 Calma 4 Este 0 -- -- 98
2019-10-19 07:00:00 16.9 0 Calma 4 Este 0 -- -- 98
2019-10-19 06:00:00 17.3 0 Calma 5 Este 0 -- -- 98
2019-10-19 05:00:00 16.9 0 Calma 6 Nordeste 0 -- -- 98
2019-10-19 04:00:00 17 3 Este 5 Este 0 -- -- 96
2019-10-19 03:00:00 16.8 4 Este 7 Este 0 -- -- 96
2019-10-19 02:00:00 16.3 2 Este 6 Este 0 -- -- 95
2019-10-19 01:00:00 16.8 2 Nordeste 5 Este 0 -- -- 95
2019-10-19 00:00:00 17.1 3 Este 6 Este 0 -- -- 94
2019-10-18 23:00:00 17.3 2 Nordeste 6 Este 0 -- -- 93
2019-10-18 22:00:00 18.2 3 Este 6 Este 0 -- -- 90
2019-10-18 21:00:00 19.4 3 Norte 5 Norte 0 -- -- 88
2019-10-18 20:00:00 20.2 2 Norte 5 Norte 0 -- -- 84
2019-10-18 19:00:00 22.7 3 Sudoeste 10 Sudoeste 0 -- -- 76
2019-10-18 18:00:00 23.9 6 Sudoeste 18 Sudoeste 0 -- -- 64
2019-10-18 17:00:00 24 10 Sudoeste 24 Sudoeste 0 -- -- 69
2019-10-18 16:00:00 24.7 13 Sudoeste 23 Sur 0 -- -- 69
2019-10-18 15:00:00 25.5 11 Sudoeste 21 Sur 0 -- -- 64
2019-10-18 14:00:00 24.6 11 Sudoeste 21 Sur 0 -- -- 69
2019-10-18 13:00:00 24.4 10 Sur -- -- -- -- -- 70
2019-10-18 12:00:00 24.2 8 Sudoeste 15 Sur 0 -- -- 76
2019-10-18 11:00:00 22.9 3 Sudoeste 10 Sudoeste 0 -- -- 88
2019-10-18 10:00:00 19.6 0 Calma 8 Este 0 -- -- 95
2019-10-18 09:00:00 16.6 2 Nordeste 10 Este 0 -- -- 95
2019-10-18 08:00:00 14.5 4 Nordeste 9 Este 0 -- -- 95
2019-10-18 07:00:00 14.5 2 Nordeste 8 Este 0 -- -- 95
2019-10-18 06:00:00 14.5 2 Este 8 Este 0 -- -- 94
2019-10-18 05:00:00 14.4 3 Nordeste 7 Este 0 -- -- 94
2019-10-18 04:00:00 14.8 0 Calma 8 Este 0 -- -- 92
2019-10-18 03:00:00 14.5 3 Este 6 Este 0 -- -- 91
2019-10-18 02:00:00 14.5 2 Nordeste 7 Este 0 -- -- 89
2019-10-18 01:00:00 15 3 Norte 6 Este 0 -- -- 87
2019-10-18 00:00:00 15.6 5 Este 8 Este 0 -- -- 84
2019-10-17 23:00:00 15.5 3 Nordeste 7 Este 0 -- -- 82
2019-10-17 22:00:00 15.2 3 Norte 6 Este 0 -- -- 83
2019-10-17 21:00:00 16.1 3 Este 4 Este 0 -- -- 78
2019-10-17 20:00:00 18.2 3 Norte 8 Noroeste 0 -- -- 73
2019-10-17 19:00:00 21.8 4 Oeste 19 Oeste 0 -- -- 63
2019-10-17 18:00:00 24.3 8 Sudoeste 17 Sudoeste 0 -- -- 57
2019-10-17 17:00:00 24.4 13 Sudoeste 22 Oeste 0 -- -- 60
2019-10-17 16:00:00 24.8 12 Sudoeste 25 Sudoeste 0 -- -- 63
2019-10-17 15:00:00 24.5 13 Sudoeste 26 Sudoeste 0 -- -- 66
2019-10-17 14:00:00 24.6 14 Sudoeste 28 Sur 0 -- -- 64
2019-10-17 13:00:00 23.7 13 Sudoeste 27 Sudoeste 0 -- -- 68
2019-10-17 12:00:00 23.1 14 Sur 25 Sudoeste 0 -- -- 73
2019-10-17 11:00:00 22.8 12 Sur 21 Sudoeste 0 -- -- 76
2019-10-17 10:00:00 19.8 0 Calma 5 Este 0 -- -- 90
2019-10-17 09:00:00 16.2 3 Este 8 Este 0 -- -- 94
2019-10-17 08:00:00 14.2 3 Nordeste 6 Este 0 -- -- 93
2019-10-17 07:00:00 14.6 5 Este 7 Este 0 -- -- 93
2019-10-17 06:00:00 14.5 0 Calma 7 Este 0 -- -- 91
2019-10-17 05:00:00 14.6 3 Nordeste 7 Este 0 -- -- 90
2019-10-17 04:00:00 14.6 3 Este 6 Norte 0 -- -- 90
2019-10-17 03:00:00 14.4 3 Nordeste 7 Este 0 -- -- 88
2019-10-17 02:00:00 14.3 3 Este 9 Este 0 -- -- 86
2019-10-17 01:00:00 14 4 Este 8 Este 0 -- -- 84
2019-10-17 00:00:00 14.5 3 Nordeste 10 Este 0 -- -- 81
2019-10-16 23:00:00 14.2 3 Nordeste 10 Este 0 -- -- 80
2019-10-16 22:00:00 14.5 5 Este 8 Este 0 -- -- 77
2019-10-16 21:00:00 15 4 Norte 10 Este 0 -- -- 73
2019-10-16 20:00:00 16.8 2 Este 6 Noroeste 0 -- -- 65
2019-10-16 19:00:00 20.5 4 Oeste 19 Sudoeste 0 -- -- 52
2019-10-16 18:00:00 22.7 12 Sudoeste 23 Oeste 0 -- -- 48
2019-10-16 17:00:00 23.6 12 Oeste 27 Oeste 0 -- -- 48
2019-10-16 16:00:00 24.1 13 Oeste 30 Sudoeste 0 -- -- 52
2019-10-16 15:00:00 23.9 15 Sudoeste 29 Sudoeste 0 -- -- 54
2019-10-16 14:00:00 23.3 17 Sur 28 Sur 0 -- -- 55
2019-10-16 13:00:00 22.8 15 Sudoeste 26 Sudoeste 0 -- -- 54
2019-10-16 12:00:00 22.4 10 Sur 21 Sur 0 -- -- 56
2019-10-16 11:00:00 21.6 7 Sur 16 Sur 0 -- -- 62
2019-10-16 10:00:00 17.9 0 Calma 6 Este 0 -- -- 81
2019-10-16 09:00:00 13.3 3 Nordeste 7 Este 0 -- -- 89
2019-10-16 08:00:00 10 0 Calma 5 Este 0 -- -- 90
2019-10-16 07:00:00 9.9 2 Nordeste 6 Este 0 -- -- 89
2019-10-16 06:00:00 10.6 3 Este 8 Este 0 -- -- 88
2019-10-16 05:00:00 10.5 3 Este 8 Este 0 -- -- 89
2019-10-16 04:00:00 10.5 0 Calma 10 Este 0 -- -- 87
2019-10-16 03:00:00 10.3 0 Calma 8 Este 0 -- -- 86
2019-10-16 02:00:00 10.8 5 Este 9 Este 0 -- -- 84
2019-10-16 01:00:00 11.3 5 Este 12 Este 0 -- -- 82
2019-10-16 00:00:00 11.8 6 Este 13 Norte 0 -- -- 81
2019-10-15 23:00:00 11.8 4 Este 12 Este 0 -- -- 81
2019-10-15 22:00:00 12 4 Este 11 Este 0 -- -- 76
2019-10-15 21:00:00 12.7 0 Calma 6 Norte 0 -- -- 72
2019-10-15 20:00:00 14.6 2 Norte 7 Nordeste 0 -- -- 66
2019-10-15 19:00:00 18.1 5 Noroeste 22 Norte 0 -- -- 52
2019-10-15 18:00:00 21 6 Noroeste 27 Noroeste 0 -- -- 48
2019-10-15 17:00:00 20.7 15 Norte 33 Noroeste 0 -- -- 50
2019-10-15 16:00:00 21.1 18 Oeste 34 Oeste 0 -- -- 49
2019-10-15 15:00:00 21.8 9 Noroeste 30 Noroeste 0 -- -- 54
2019-10-15 14:00:00 20.7 14 Noroeste 34 Noroeste 0 -- -- 56
2019-10-15 13:00:00 20.5 11 Norte 31 Noroeste 0 -- -- 57
2019-10-15 12:00:00 20 13 Noroeste 35 Norte 0 -- -- 58
2019-10-15 11:00:00 19.4 14 Norte 48 Noroeste 0 -- -- 60
2019-10-15 10:00:00 19 21 Noroeste 37 Noroeste 0 -- -- 63
2019-10-15 09:00:00 18.8 15 Norte 34 Noroeste 0 -- -- 66
2019-10-15 08:00:00 18.8 17 Noroeste 32 Norte 0 -- -- 70
2019-10-15 07:00:00 20.2 13 Noroeste 35 Noroeste 0 -- -- 71
2019-10-15 06:00:00 20.5 18 Noroeste 47 Noroeste 0 -- -- 74
2019-10-15 05:00:00 20.8 12 Noroeste 30 Norte 0.2 -- -- 86
2019-10-15 04:00:00 18 4 Oeste 12 Sudoeste 0.8 -- -- 95
2019-10-15 03:00:00 17.3 0 Calma 10 Norte 0.2 -- -- 94
2019-10-15 02:00:00 18 4 Oeste 35 Oeste 10.8 -- -- 93
2019-10-15 01:00:00 20.8 4 Nordeste 15 Norte 0 -- -- 91
2019-10-15 00:00:00 18.8 3 Nordeste 8 Noroeste 0 -- -- 92